Time;durP1;ratioP1;P1;durP2;ratioP2;P2;SDS_P1;SDS_P2;PMS_P1;PMS_P2;Temp;Humidity;BMP_temperature;BMP_pressure;BME280_temperature;BME280_humidity;BME280_pressure;Samples;Min_cycle;Max_cycle;Signal;HPM_P1;HPM_P2
2022/09/14 00:00:44;;;;;;;1.73;1.20;;;;;;;17.43;100.00;97563.41;15291174;19;20023;-51
2022/09/14 00:05:51;;;;;;;1.40;1.10;;;;;;;17.46;100.00;97562.09;15281805;19;20049;-82
2022/09/14 00:10:59;;;;;;;2.88;1.20;;;;;;;17.46;100.00;97541.19;15279487;19;20379;-82
2022/09/14 00:16:09;;;;;;;1.27;1.15;;;;;;;17.44;100.00;97532.41;15286340;19;20017;-82
2022/09/14 00:21:19;;;;;;;1.45;1.27;;;;;;;17.43;100.00;97535.31;15293220;19;20011;-82
2022/09/14 00:26:28;;;;;;;3.35;1.92;;;;;;;17.36;100.00;97540.84;15291803;19;20033;-82
2022/09/14 00:31:36;;;;;;;3.10;1.95;;;;;;;17.35;100.00;97545.47;15290888;19;20011;-82
2022/09/14 00:36:55;;;;;;;4.15;2.10;;;;;;;17.33;100.00;97527.72;15287848;19;20094;-82
2022/09/14 00:42:15;;;;;;;4.13;2.80;;;;;;;17.30;100.00;97511.81;15305088;19;20078;-82
2022/09/14 00:53:05;;;;;;;4.25;2.97;;;;;;;17.29;100.00;97524.59;15284248;19;20094;-80
2022/09/14 00:58:24;;;;;;;4.97;3.42;;;;;;;17.27;100.00;97509.53;15312146;19;20668;-83
2022/09/14 01:03:32;;;;;;;5.05;3.58;;;;;;;17.25;100.00;97513.31;15331472;19;20376;-82
2022/09/14 01:09:08;;;;;;;4.25;3.33;;;;;;;17.27;100.00;97520.44;15290614;19;20007;-82
2022/09/14 01:14:40;;;;;;;5.25;3.00;;;;;;;17.21;100.00;97523.03;15285191;19;20078;-82
2022/09/14 01:20:15;;;;;;;3.92;2.83;;;;;;;17.22;100.00;97523.84;15290603;19;20020;-82
2022/09/14 01:25:57;;;;;;;5.88;3.30;;;;;;;17.23;100.00;97529.03;15283483;19;20015;-82
2022/09/14 01:31:13;;;;;;;6.88;3.20;;;;;;;17.23;100.00;97526.31;15275960;19;20360;-82
2022/09/14 01:36:22;;;;;;;4.82;3.40;;;;;;;17.23;100.00;97526.31;15282920;19;20742;-82
2022/09/14 01:41:30;;;;;;;5.93;4.30;;;;;;;17.25;100.00;97528.84;15286063;19;20022;-81
2022/09/14 01:46:42;;;;;;;5.45;4.20;;;;;;;17.27;100.00;97525.88;15283247;19;20011;-83
2022/09/14 01:52:02;;;;;;;6.90;5.15;;;;;;;17.25;100.00;97526.94;15281458;19;20479;-82
2022/09/14 01:57:34;;;;;;;7.38;5.00;;;;;;;17.26;100.00;97514.19;15279684;19;20011;-82
2022/09/14 02:02:51;;;;;;;7.30;4.88;;;;;;;17.23;100.00;97515.44;15311668;19;20021;-82
2022/09/14 02:07:56;;;;;;;6.65;4.68;;;;;;;17.23;100.00;97510.00;15277535;19;20029;-82
2022/09/14 02:13:24;;;;;;;5.70;4.57;;;;;;;17.27;100.00;97504.09;15280923;19;20086;-81
2022/09/14 02:18:35;;;;;;;6.30;4.68;;;;;;;17.25;100.00;97507.88;15272099;19;20021;-82
2022/09/14 02:23:44;;;;;;;7.10;4.67;;;;;;;17.24;100.00;97499.97;15279578;19;20042;-81
2022/09/14 02:28:54;;;;;;;6.82;3.60;;;;;;;17.22;100.00;97478.41;15278399;19;20028;-81
2022/09/14 02:34:14;;;;;;;4.80;3.60;;;;;;;17.21;100.00;97490.38;15272331;19;20018;-81
2022/09/14 02:39:28;;;;;;;6.93;4.32;;;;;;;17.15;100.00;97480.38;15309982;19;20082;-81
2022/09/14 02:44:45;;;;;;;6.00;4.45;;;;;;;17.06;100.00;97470.84;15284891;19;20015;-82
2022/09/14 02:50:30;;;;;;;5.47;4.57;;;;;;;17.04;100.00;97473.81;15285752;19;20017;-82
2022/09/14 02:55:39;;;;;;;5.60;4.03;;;;;;;17.03;100.00;97460.41;15287318;19;20018;-84
2022/09/14 03:00:51;;;;;;;6.38;4.22;;;;;;;17.01;100.00;97459.78;15288051;19;20415;-84
2022/09/14 03:06:01;;;;;;;6.53;4.40;;;;;;;17.01;100.00;97457.09;15286027;19;20019;-82
2022/09/14 03:11:24;;;;;;;6.13;4.35;;;;;;;17.00;100.00;97445.38;15276813;19;20439;-83
2022/09/14 03:16:31;;;;;;;5.72;4.30;;;;;;;17.01;100.00;97447.03;15275514;19;20014;-83
2022/09/14 03:21:49;;;;;;;4.97;3.63;;;;;;;17.01;100.00;97454.34;15293876;19;20026;-81
2022/09/14 03:26:54;;;;;;;6.65;3.70;;;;;;;16.98;100.00;97455.66;15288971;19;20032;-84
2022/09/14 03:32:02;;;;;;;8.27;3.20;;;;;;;16.97;100.00;97456.72;15337664;19;20007;-82
2022/09/14 03:37:11;;;;;;;4.18;3.28;;;;;;;16.96;100.00;97448.78;15340848;19;20026;-81
2022/09/14 03:42:26;;;;;;;5.07;3.25;;;;;;;16.96;100.00;97435.19;15292460;19;20010;-80
2022/09/14 03:47:32;;;;;;;8.18;3.65;;;;;;;16.95;100.00;97447.94;15289265;19;20293;-81
2022/09/14 03:52:46;;;;;;;6.32;4.05;;;;;;;16.95;100.00;97426.16;15290735;19;20621;-81
2022/09/14 03:58:00;;;;;;;5.85;4.88;;;;;;;16.88;100.00;97419.94;15283361;19;20035;-83
2022/09/14 04:03:27;;;;;;;6.70;4.80;;;;;;;16.86;100.00;97428.34;15289337;19;20015;-84
2022/09/14 04:08:37;;;;;;;5.25;4.60;;;;;;;16.76;100.00;97417.13;15278590;19;20336;-80
2022/09/14 04:13:58;;;;;;;7.15;4.68;;;;;;;16.65;100.00;97416.03;15289443;19;20018;-82
2022/09/14 04:19:13;;;;;;;6.80;4.40;;;;;;;16.59;100.00;97416.91;15289349;19;20029;-81
2022/09/14 04:24:35;;;;;;;6.80;4.68;;;;;;;16.46;100.00;97417.88;15290118;19;20774;-80
2022/09/14 04:29:45;;;;;;;5.75;4.57;;;;;;;16.32;100.00;97423.44;15289466;19;20078;-81
2022/09/14 04:34:50;;;;;;;5.70;4.80;;;;;;;16.18;100.00;97421.88;15285933;19;20684;-81
2022/09/14 04:39:55;;;;;;;6.97;4.90;;;;;;;16.09;100.00;97425.94;15309622;19;20058;-79
2022/09/14 04:45:09;;;;;;;6.53;5.00;;;;;;;16.05;100.00;97427.44;15287651;19;20014;-81
2022/09/14 04:50:28;;;;;;;9.30;5.82;;;;;;;15.97;100.00;97423.13;15290805;19;20047;-81
2022/09/14 04:55:47;;;;;;;7.93;6.10;;;;;;;15.88;100.00;97421.72;15291286;19;20031;-81
2022/09/14 05:00:54;;;;;;;9.52;6.40;;;;;;;15.83;100.00;97427.75;15287802;19;20420;-79
2022/09/14 05:06:06;;;;;;;8.13;6.80;;;;;;;15.76;100.00;97422.38;15290443;19;20479;-81
2022/09/14 05:17:00;;;;;;;7.35;6.40;;;;;;;15.69;100.00;97438.75;15289072;19;20367;-80
2022/09/14 05:22:10;;;;;;;8.85;6.55;;;;;;;15.67;100.00;97435.41;15296081;19;20093;-80
2022/09/14 05:27:14;;;;;;;7.57;6.38;;;;;;;15.71;100.00;97436.63;15283056;19;20017;-47
2022/09/14 05:32:19;;;;;;;8.25;6.18;;;;;;;15.75;100.00;97441.63;15271559;19;20010;-49
2022/09/14 05:37:26;;;;;;;7.95;6.35;;;;;;;15.77;100.00;97439.50;15272895;19;20572;-47
2022/09/14 05:42:31;;;;;;;7.82;6.38;;;;;;;15.78;100.00;97433.03;15276790;19;20013;-51
2022/09/14 05:47:36;;;;;;;7.38;6.05;;;;;;;15.78;100.00;97433.03;15266382;19;20006;-51
2022/09/14 05:52:47;;;;;;;6.78;5.80;;;;;;;15.78;100.00;97435.75;15273802;19;20043;-48
2022/09/14 05:57:53;;;;;;;8.35;5.80;;;;;;;15.78;100.00;97414.84;15274257;19;20010;-47
2022/09/14 06:02:58;;;;;;;6.20;5.57;;;;;;;15.79;100.00;97423.84;15274124;19;20124;-49
2022/09/14 06:08:05;;;;;;;8.80;5.40;;;;;;;15.75;100.00;97420.75;15268624;19;20019;-47
2022/09/14 06:13:13;;;;;;;8.30;5.95;;;;;;;15.76;100.00;97416.13;15277142;19;20022;31
2022/09/14 06:18:18;;;;;;;8.55;5.47;;;;;;;15.73;100.00;97414.69;15292410;19;20011;-83
2022/09/14 06:23:25;;;;;;;8.02;5.80;;;;;;;15.72;100.00;97419.28;15284656;19;20399;-84
2022/09/14 06:28:30;;;;;;;9.65;5.80;;;;;;;15.70;100.00;97410.50;15288193;19;20078;-85
2022/09/14 06:33:35;;;;;;;12.55;5.93;;;;;;;15.69;100.00;97417.03;15285846;19;20014;-84
2022/09/14 06:38:43;;;;;;;9.82;5.75;;;;;;;15.67;100.00;97410.97;15279193;19;20010;-86
2022/09/14 06:43:48;;;;;;;9.90;5.60;;;;;;;15.65;100.00;97407.63;15307607;19;20039;-85
2022/09/14 06:48:54;;;;;;;8.20;5.32;;;;;;;15.70;100.00;97410.50;15323085;19;20719;-83
2022/09/14 06:54:02;;;;;;;8.45;5.95;;;;;;;15.70;100.00;97404.25;15289541;19;20015;-82
2022/09/14 06:59:08;;;;;;;10.68;5.65;;;;;;;15.74;100.00;97415.50;15287749;19;20014;-81
2022/09/14 07:04:13;;;;;;;7.55;5.57;;;;;;;15.79;100.00;97411.09;15293743;19;20010;-84
2022/09/14 07:09:21;;;;;;;6.38;5.20;;;;;;;15.86;100.00;97419.22;15286885;19;20027;-81
2022/09/14 07:14:25;;;;;;;6.53;5.13;;;;;;;15.79;100.00;97416.50;15295614;19;20014;-83
2022/09/14 07:19:35;;;;;;;11.02;5.18;;;;;;;15.81;100.00;97413.59;15295342;19;20015;-82
2022/09/14 07:24:42;;;;;;;7.53;5.15;;;;;;;15.80;100.00;97420.06;15292557;19;20070;-82
2022/09/14 07:29:47;;;;;;;6.93;5.13;;;;;;;15.76;100.00;97418.84;15298346;19;20066;-82
2022/09/14 07:34:51;;;;;;;6.65;5.53;;;;;;;15.75;100.00;97423.44;15298971;19;20021;-84
2022/09/14 07:40:00;;;;;;;7.45;6.00;;;;;;;15.75;100.00;97428.03;15312208;19;20007;-82
2022/09/14 07:45:04;;;;;;;9.20;5.65;;;;;;;15.73;100.00;97425.56;15292481;19;20010;-82
2022/09/14 07:50:10;;;;;;;7.85;6.03;;;;;;;15.74;100.00;97426.38;15294840;19;20019;-83
2022/09/14 07:55:19;;;;;;;7.68;6.50;;;;;;;15.71;100.00;97428.47;15294520;19;20086;-84
2022/09/14 08:00:24;;;;;;;8.30;6.60;;;;;;;15.66;100.00;97425.59;15306200;19;20010;-83
2022/09/14 08:05:30;;;;;;;8.32;7.32;;;;;;;15.68;100.00;97430.78;15309010;19;20026;-83
2022/09/14 08:10:38;;;;;;;9.00;7.65;;;;;;;15.71;100.00;97424.94;15296541;19;20010;-83
2022/09/14 08:15:43;;;;;;;7.65;6.88;;;;;;;15.73;100.00;97420.13;15289787;19;20018;-85
2022/09/14 08:20:48;;;;;;;7.93;7.13;;;;;;;15.78;100.00;97419.47;15297622;19;20014;-84
2022/09/14 08:25:56;;;;;;;7.95;6.68;;;;;;;15.80;100.00;97425.50;15292892;19;20440;-82
2022/09/14 08:31:06;;;;;;;7.40;6.50;;;;;;;15.80;100.00;97420.06;15293580;19;20645;-83
2022/09/14 08:36:13;;;;;;;8.23;6.88;;;;;;;15.73;100.00;97420.13;15294669;19;20516;-84
2022/09/14 08:41:30;;;;;;;7.93;7.10;;;;;;;15.73;100.00;97422.84;15310475;19;20014;-83
2022/09/14 08:46:37;;;;;;;8.50;6.90;;;;;;;15.75;100.00;97417.16;15291002;19;20018;-82
2022/09/14 08:51:41;;;;;;;8.23;6.75;;;;;;;15.78;100.00;97414.84;15293043;19;20060;-82
2022/09/14 08:56:55;;;;;;;6.40;5.22;;;;;;;15.85;100.00;97418.41;15298254;19;20018;-84
2022/09/14 09:02:08;;;;;;;6.40;4.80;;;;;;;15.89;100.00;97412.50;15303276;19;20082;-82
2022/09/14 09:07:20;;;;;;;6.13;4.70;;;;;;;15.96;100.00;97414.13;15298104;19;20038;-84
2022/09/14 09:12:37;;;;;;;5.78;4.45;;;;;;;15.96;100.00;97414.13;15284904;19;20495;-84
2022/09/14 09:17:46;;;;;;;7.38;4.10;;;;;;;15.91;100.00;97407.69;15283623;19;20029;-82
2022/09/14 09:22:56;;;;;;;12.18;4.90;;;;;;;15.89;100.00;97407.06;15285156;19;20039;-85
2022/09/14 09:28:13;;;;;;;13.00;4.85;;;;;;;15.89;100.00;97404.34;15284722;19;20033;-82
2022/09/14 09:33:21;;;;;;;11.45;4.55;;;;;;;15.94;100.00;97399.91;15281654;19;20459;-83
2022/09/14 09:38:39;;;;;;;8.90;4.60;;;;;;;15.94;100.00;97396.38;15285637;19;20015;-84
2022/09/14 09:44:05;;;;;;;6.63;4.90;;;;;;;15.98;100.00;97386.75;15288326;19;20459;-83
2022/09/14 09:49:19;;;;;;;13.00;4.95;;;;;;;15.97;100.00;97398.66;15285449;19;20627;-84
2022/09/14 09:54:28;;;;;;;10.70;5.18;;;;;;;15.96;100.00;97400.53;15284287;19;20015;-85
2022/09/14 09:59:37;;;;;;;7.70;5.07;;;;;;;15.94;100.00;97401.81;15295360;19;19999;-83
2022/09/14 10:04:58;;;;;;;7.38;5.10;;;;;;;15.92;100.00;97402.06;15344292;19;20022;-83
2022/09/14 10:10:04;;;;;;;7.17;5.30;;;;;;;15.92;100.00;97410.19;15299764;19;20120;-84
2022/09/14 10:15:17;;;;;;;6.55;5.10;;;;;;;15.92;100.00;97407.47;15302102;19;20025;-82
2022/09/14 10:20:24;;;;;;;7.47;5.68;;;;;;;15.91;100.00;97404.97;15297636;19;20031;-83
2022/09/14 10:25:28;;;;;;;6.97;5.13;;;;;;;15.91;100.00;97400.38;15291435;19;20019;-83
2022/09/14 10:30:42;;;;;;;5.65;4.80;;;;;;;15.96;100.00;97400.53;15291652;19;20018;-82
2022/09/14 10:35:54;;;;;;;5.28;4.18;;;;;;;15.96;100.00;97383.44;15286744;19;20419;-83
2022/09/14 10:41:10;;;;;;;4.93;4.28;;;;;;;16.02;100.00;97390.66;15297144;19;20088;-80
2022/09/14 10:46:22;;;;;;;6.47;4.50;;;;;;;16.10;100.00;97395.00;15293287;19;20021;-82
2022/09/14 10:51:39;;;;;;;4.78;4.00;;;;;;;16.22;100.00;97385.06;15290977;19;20015;-82
2022/09/14 10:57:02;;;;;;;5.05;4.25;;;;;;;16.35;100.00;97399.59;15288532;19;20016;-81
2022/09/14 11:02:58;;;;;;;4.70;3.90;;;;;;;16.46;100.00;97396.13;15293858;19;20066;-81
2022/09/14 11:08:16;;;;;;;4.68;4.15;;;;;;;16.51;100.00;97377.28;15282864;19;20026;-82
2022/09/14 11:13:41;;;;;;;4.68;3.70;;;;;;;16.60;100.00;97381.34;15298801;19;20014;-81
2022/09/14 11:18:57;;;;;;;4.10;3.03;;;;;;;16.67;100.00;97391.31;15296025;19;20081;-82
2022/09/14 11:24:13;;;;;;;3.20;2.90;;;;;;;16.70;100.00;97363.66;15298901;19;20019;-83
2022/09/14 11:29:24;;;;;;;3.55;2.92;;;;;;;16.75;100.00;97355.66;15300356;19;20035;-82
2022/09/14 11:34:37;;;;;;;3.15;2.70;;;;;;;16.80;100.00;97353.09;15314075;19;20014;-82
2022/09/14 11:39:44;;;;;;;3.30;2.55;;;;;;;16.83;100.00;97344.47;15285475;19;20512;-80
2022/09/14 11:44:55;;;;;;;2.40;2.20;;;;;;;16.84;100.00;97331.69;15297412;19;20006;-82
2022/09/14 11:50:08;;;;;;;2.50;2.30;;;;;;;16.85;100.00;97334.19;15292493;19;20071;-81
2022/09/14 11:55:19;;;;;;;2.83;1.90;;;;;;;16.96;100.00;97339.97;15294786;19;20074;-81
2022/09/14 12:00:47;;;;;;;2.95;1.80;;;;;;;17.04;100.00;97342.34;15297720;19;20011;-82
2022/09/14 12:05:54;;;;;;;1.90;1.80;;;;;;;17.13;100.00;97324.63;15300782;19;20025;-81
2022/09/14 12:11:27;;;;;;;2.20;2.00;;;;;;;17.23;100.00;97326.81;15292804;19;20006;-80
2022/09/14 12:16:32;;;;;;;11.65;2.20;;;;;;;17.36;100.00;97323.06;15298644;19;20065;-81
2022/09/14 12:21:40;;;;;;;24.40;3.05;;;;;;;17.47;100.00;97330.44;15289215;19;20034;-82
2022/09/14 12:26:45;;;;;;;19.70;2.40;;;;;;;17.53;100.00;97324.06;15305072;19;20029;-80
2022/09/14 12:32:06;;;;;;;4.43;1.95;;;;;;;17.53;100.00;97313.19;15301417;19;20082;-82
2022/09/14 12:37:33;;;;;;;4.45;2.38;;;;;;;17.59;100.00;97313.28;15298326;19;20041;-85
2022/09/14 12:42:38;;;;;;;2.97;2.10;;;;;;;17.63;100.00;97312.63;15294279;19;20539;-85
2022/09/14 12:47:52;;;;;;;2.50;2.30;;;;;;;17.55;100.00;97302.03;15293540;19;20022;-82
2022/09/14 18:22:56;;;;;;;1.77;1.17;;;;;;;14.41;100.00;97145.69;15292292;19;19994;-82
2022/09/14 18:28:00;;;;;;;2.78;1.00;;;;;;;14.47;100.00;97155.66;15293601;19;20101;-82
2022/09/14 18:33:05;;;;;;;0.65;0.50;;;;;;;14.61;100.00;97163.72;15278428;19;20019;-83
2022/09/14 18:38:13;;;;;;;0.45;0.40;;;;;;;14.44;100.00;97183.19;15298910;19;20028;-83
2022/09/14 18:43:18;;;;;;;0.40;0.40;;;;;;;14.45;100.00;97182.16;15315850;19;20017;-86
2022/09/14 18:48:25;;;;;;;0.40;0.40;;;;;;;14.38;100.00;97192.19;15347828;19;20010;-80
2022/09/14 22:26:33;;;;;;;8.95;8.02;;;;;;;13.58;100.00;97298.81;15280919;19;20436;-84
2022/09/14 22:31:39;;;;;;;7.50;6.80;;;;;;;13.56;100.00;97293.63;15285946;19;20018;-81
2022/09/14 22:36:44;;;;;;;8.77;7.88;;;;;;;13.59;100.00;97288.81;15284733;19;20018;-83
2022/09/14 22:41:51;;;;;;;9.98;8.90;;;;;;;13.58;100.00;97270.94;15286369;19;20075;-83
2022/09/14 22:46:56;;;;;;;9.13;7.80;;;;;;;13.52;100.00;97269.91;15283380;19;20019;-83
2022/09/14 22:52:00;;;;;;;9.98;8.57;;;;;;;13.49;100.00;97292.78;15281293;19;20006;-82
2022/09/14 22:57:07;;;;;;;10.85;9.75;;;;;;;13.47;100.00;97297.56;15299813;19;20423;-82
2022/09/14 23:02:13;;;;;;;10.15;9.05;;;;;;;13.44;100.00;97289.88;15301923;19;20011;-83
2022/09/14 23:07:18;;;;;;;9.40;8.30;;;;;;;13.47;100.00;97302.16;15284988;19;20451;-83
2022/09/14 23:12:26;;;;;;;7.25;5.70;;;;;;;13.41;100.00;97320.03;15286637;19;20094;-84
2022/09/14 23:17:30;;;;;;;7.20;5.80;;;;;;;13.46;100.00;97325.69;15287059;19;20086;-83
2022/09/14 23:22:35;;;;;;;6.18;5.40;;;;;;;13.45;100.00;97307.78;15286145;19;20014;-85
2022/09/14 23:27:42;;;;;;;8.93;7.15;;;;;;;13.50;100.00;97312.56;15306039;19;20066;-82
2022/09/14 23:32:46;;;;;;;15.68;11.23;;;;;;;13.49;100.00;97311.72;15325758;19;20023;-84
2022/09/14 23:37:53;;;;;;;12.05;10.07;;;;;;;13.47;100.00;97311.09;15307044;19;20078;-84
2022/09/14 23:43:03;;;;;;;10.40;9.20;;;;;;;13.50;100.00;97317.97;15313892;19;20023;-81
2022/09/14 23:48:08;;;;;;;11.98;9.75;;;;;;;13.51;100.00;97312.34;15308931;19;20109;-82
2022/09/14 23:53:12;;;;;;;13.07;10.82;;;;;;;13.53;100.00;97314.84;15299454;19;20415;-83
2022/09/14 23:58:20;;;;;;;13.80;11.00;;;;;;;13.53;100.00;97304.00;15284398;19;20017;-82
